PWSweather.com
Personal Weather Stations
Station Observations
PENICUIKWS
PenicuikGB

PenicuikGB

Lat: 55.830932, Lon: -3.224533000000065

Elevation: 166

Station Type: Fine Offset

http://weather.penicuik.org

Latest ConditionsUpdated 5:45:01 PM GMT Sunday, Jan 26, 2020
Currently Today's Max Today's Min Today's Average
Temperature 34.7°F1.5°C 46.6°F8.1°C 34.7°F1.5°C 43.8°F6.6°C
Dew Point 30.1°F-1.1°C 41.5°F5.3°C 30.1°F-1.1°C 37.6°F3.1°C
Winds 0.5 mph W0.8 kmh W 7.9 mph -12.7 kmh - - 3.7 mph 6.0 kmh
Wind Gusts 2.2 mph3.5 kmh 15.2 mph24.5 kmh - -
Humidity 83% 84% 74% 79%
Pressure 29.52 in999.7 mb 29.67 in1004.7 mb 29.44 in997.0 mb -
Precipitation - 0.07 in1.8 mm - -
Hour Temp Dew Point Humidity Winds Wind Gusts Pressure Precip Precip Rate Daily Precip Total
05:45 PM 34.7°F1.5°C 30.1°F-1.1°C 83% 0.5 mph W0.8 kmh W 2.2 mph3.5 kmh 29.52 in999.7 mb 0.00 in0.0 mm 0.00 in0.0 mm 0.07 in1.8 mm
05:30 PM 35.1°F1.7°C 30.4°F-0.9°C 83% 0.2 mph SW0.3 kmh SW 0.7 mph1.1 kmh 29.52 in999.7 mb 0.00 in0.0 mm 0.00 in0.0 mm 0.07 in1.8 mm
05:15 PM 35.4°F1.9°C 30.5°F-0.8°C 82% 0.5 mph SW0.8 kmh SW 1.6 mph2.6 kmh 29.51 in999.3 mb 0.00 in0.0 mm 0.00 in0.0 mm 0.07 in1.8 mm
05:00 PM 36.0°F2.2°C 30.7°F-0.7°C 81% 0.1 mph SW0.2 kmh SW 0.7 mph1.1 kmh 29.51 in999.3 mb 0.00 in0.0 mm 0.00 in0.0 mm 0.07 in1.8 mm
04:45 PM 36.5°F2.5°C 30.9°F-0.6°C 80% 0.1 mph NW0.2 kmh NW 0.7 mph1.1 kmh 29.51 in999.3 mb 0.00 in0.0 mm 0.00 in0.0 mm 0.07 in1.8 mm
04:30 PM 37.4°F3.0°C 33.0°F0.6°C 84% 0.1 mph SW0.2 kmh SW 0.7 mph1.1 kmh 29.50 in999.0 mb 0.00 in0.0 mm 0.00 in0.0 mm 0.07 in1.8 mm
04:15 PM 38.3°F3.5°C 33.9°F1.1°C 84% 2.2 mph NW3.5 kmh NW 3.1 mph5.0 kmh 29.50 in999.0 mb 0.00 in0.0 mm 0.00 in0.0 mm 0.07 in1.8 mm
04:00 PM 38.8°F3.8°C 34.1°F1.2°C 83% 1.4 mph SSE2.3 kmh SSE 3.8 mph6.1 kmh 29.50 in999.0 mb 0.01 in0.3 mm 0.00 in0.0 mm 0.07 in1.8 mm
03:45 PM 39.4°F4.1°C 34.4°F1.3°C 82% 2.4 mph SSE3.9 kmh SSE 4.5 mph7.2 kmh 29.50 in999.0 mb 0.01 in0.3 mm 0.00 in0.0 mm 0.07 in1.8 mm
03:30 PM 39.7°F4.3°C 34.1°F1.2°C 80% 2.4 mph SSW3.9 kmh SSW 6.0 mph9.7 kmh 29.50 in999.0 mb 0.01 in0.3 mm 0.00 in0.0 mm 0.07 in1.8 mm
03:15 PM 40.8°F4.9°C 34.2°F1.2°C 77% 2.0 mph S3.2 kmh S 3.8 mph6.1 kmh 29.50 in999.0 mb 0.01 in0.3 mm 0.04 in1.0 mm 0.07 in1.8 mm
03:00 PM 42.6°F5.9°C 34.9°F1.6°C 74% 5.7 mph WSW9.2 kmh WSW 9.2 mph14.8 kmh 29.50 in999.0 mb 0.00 in0.0 mm 0.00 in0.0 mm 0.06 in1.5 mm
02:45 PM 43.3°F6.3°C 35.6°F2.0°C 74% 2.6 mph SW4.2 kmh SW 6.0 mph9.7 kmh 29.49 in998.6 mb 0.00 in0.0 mm 0.00 in0.0 mm 0.06 in1.5 mm
02:30 PM 43.7°F6.5°C 36.0°F2.2°C 74% 3.3 mph SW5.3 kmh SW 5.4 mph8.7 kmh 29.47 in998.0 mb 0.00 in0.0 mm 0.00 in0.0 mm 0.06 in1.5 mm
02:15 PM 44.1°F6.7°C 36.7°F2.6°C 75% 3.3 mph SSW5.3 kmh SSW 6.9 mph11.1 kmh 29.47 in998.0 mb 0.00 in0.0 mm 0.00 in0.0 mm 0.06 in1.5 mm
02:00 PM 44.6°F7.0°C 37.8°F3.2°C 77% 2.6 mph WSW4.2 kmh WSW 3.8 mph6.1 kmh 29.47 in998.0 mb 0.00 in0.0 mm 0.00 in0.0 mm 0.06 in1.5 mm
01:45 PM 45.0°F7.2°C 38.5°F3.6°C 78% 3.5 mph SW5.6 kmh SW 7.6 mph12.2 kmh 29.46 in997.6 mb 0.00 in0.0 mm 0.00 in0.0 mm 0.06 in1.5 mm
01:30 PM 45.0°F7.2°C 39.2°F4.0°C 80% 3.0 mph SE4.8 kmh SE 4.5 mph7.2 kmh 29.47 in998.0 mb 0.00 in0.0 mm 0.00 in0.0 mm 0.06 in1.5 mm
01:15 PM 45.0°F7.2°C 40.1°F4.5°C 83% 1.2 mph WSW1.9 kmh WSW 3.1 mph5.0 kmh 29.46 in997.6 mb 0.00 in0.0 mm 0.00 in0.0 mm 0.06 in1.5 mm
01:00 PM 43.9°F6.6°C 39.4°F4.1°C 84% 2.2 mph S3.5 kmh S 3.8 mph6.1 kmh 29.47 in998.0 mb 0.00 in0.0 mm 0.00 in0.0 mm 0.06 in1.5 mm
12:45 PM 43.7°F6.5°C 38.9°F3.8°C 83% 1.6 mph NNE2.6 kmh NNE 3.8 mph6.1 kmh 29.47 in998.0 mb 0.01 in0.3 mm 0.00 in0.0 mm 0.06 in1.5 mm
12:30 PM 43.7°F6.5°C 38.9°F3.8°C 83% 2.1 mph SW3.4 kmh SW 5.4 mph8.7 kmh 29.47 in998.0 mb 0.01 in0.3 mm 0.00 in0.0 mm 0.06 in1.5 mm
12:15 PM 43.5°F6.4°C 38.4°F3.6°C 82% 3.0 mph SSW4.8 kmh SSW 5.4 mph8.7 kmh 29.47 in998.0 mb 0.04 in1.0 mm 0.00 in0.0 mm 0.06 in1.5 mm
12:00 PM 44.2°F6.8°C 39.1°F3.9°C 82% 2.6 mph W4.2 kmh W 3.8 mph6.1 kmh 29.46 in997.6 mb 0.05 in1.3 mm 0.01 in0.3 mm 0.06 in1.5 mm
11:45 AM 45.3°F7.4°C 40.5°F4.7°C 83% 3.4 mph WSW5.5 kmh WSW 4.5 mph7.2 kmh 29.46 in997.6 mb 0.04 in1.0 mm 0.00 in0.0 mm 0.05 in1.3 mm
11:30 AM 45.9°F7.7°C 41.3°F5.2°C 84% 3.6 mph N5.8 kmh N 6.0 mph9.7 kmh 29.45 in997.3 mb 0.04 in1.0 mm 0.12 in3.0 mm 0.05 in1.3 mm
11:15 AM 46.4°F8.0°C 41.5°F5.3°C 83% 4.1 mph SW6.6 kmh SW 10.7 mph17.2 kmh 29.45 in997.3 mb 0.01 in0.3 mm 0.04 in1.0 mm 0.02 in0.5 mm
11:00 AM 46.4°F8.0°C 41.5°F5.3°C 83% 4.1 mph N6.6 kmh N 6.9 mph11.1 kmh 29.45 in997.3 mb 0.00 in0.0 mm 0.00 in0.0 mm 0.01 in0.3 mm
10:45 AM 46.2°F7.9°C 41.3°F5.2°C 83% 3.0 mph SW4.8 kmh SW 4.5 mph7.2 kmh 29.44 in997.0 mb 0.00 in0.0 mm 0.00 in0.0 mm 0.01 in0.3 mm
10:30 AM 45.7°F7.6°C 40.8°F4.9°C 83% 3.2 mph ENE5.1 kmh ENE 6.0 mph9.7 kmh 29.44 in997.0 mb 0.01 in0.3 mm 0.00 in0.0 mm 0.01 in0.3 mm
10:15 AM 45.3°F7.4°C 40.2°F4.6°C 82% 1.9 mph SW3.1 kmh SW 4.5 mph7.2 kmh 29.45 in997.3 mb 0.01 in0.3 mm 0.00 in0.0 mm 0.01 in0.3 mm
10:00 AM 45.3°F7.4°C 40.2°F4.6°C 82% 5.8 mph WSW9.3 kmh WSW 12.1 mph19.5 kmh 29.45 in997.3 mb 0.01 in0.3 mm 0.00 in0.0 mm 0.01 in0.3 mm
09:45 AM 45.3°F7.4°C 39.8°F4.3°C 81% 3.4 mph E5.5 kmh E 6.9 mph11.1 kmh 29.46 in997.6 mb 0.01 in0.3 mm 0.04 in1.0 mm 0.01 in0.3 mm
09:30 AM 45.7°F7.6°C 40.2°F4.6°C 81% 3.8 mph NE6.1 kmh NE 6.0 mph9.7 kmh 29.47 in998.0 mb 0.00 in0.0 mm 0.00 in0.0 mm 0.00 in0.0 mm
09:15 AM 45.7°F7.6°C 39.9°F4.4°C 80% 3.4 mph SW5.5 kmh SW 6.0 mph9.7 kmh 29.47 in998.0 mb 0.00 in0.0 mm 0.00 in0.0 mm 0.00 in0.0 mm
09:00 AM 45.9°F7.7°C 39.7°F4.3°C 79% 5.4 mph SW8.7 kmh SW 9.8 mph15.8 kmh 29.46 in997.6 mb 0.00 in0.0 mm 0.00 in0.0 mm 0.00 in0.0 mm
08:45 AM 46.2°F7.9°C 39.7°F4.3°C 78% 5.1 mph NE8.2 kmh NE 12.1 mph19.5 kmh 29.47 in998.0 mb 0.00 in0.0 mm 0.00 in0.0 mm 0.00 in0.0 mm
08:30 AM 46.6°F8.1°C 39.8°F4.3°C 77% 6.5 mph WSW10.5 kmh WSW 9.2 mph14.8 kmh 29.46 in997.6 mb 0.00 in0.0 mm 0.00 in0.0 mm 0.00 in0.0 mm
08:15 AM 46.4°F8.0°C 39.9°F4.4°C 78% 5.7 mph SW9.2 kmh SW 8.3 mph13.4 kmh 29.46 in997.6 mb 0.00 in0.0 mm 0.00 in0.0 mm 0.00 in0.0 mm
08:00 AM 46.6°F8.1°C 39.4°F4.1°C 76% 6.5 mph NE10.5 kmh NE 10.7 mph17.2 kmh 29.46 in997.6 mb 0.00 in0.0 mm 0.00 in0.0 mm 0.00 in0.0 mm
07:45 AM 46.4°F8.0°C 39.3°F4.1°C 76% 7.1 mph S11.4 kmh S 12.1 mph19.5 kmh 29.47 in998.0 mb 0.00 in0.0 mm 0.00 in0.0 mm 0.00 in0.0 mm
07:30 AM 46.2°F7.9°C 39.1°F3.9°C 76% 7.0 mph WSW11.3 kmh WSW 15.2 mph24.5 kmh 29.46 in997.6 mb 0.00 in0.0 mm 0.00 in0.0 mm 0.00 in0.0 mm
07:15 AM 46.0°F7.8°C 39.2°F4.0°C 77% 6.8 mph SW10.9 kmh SW 11.4 mph18.3 kmh 29.47 in998.0 mb 0.00 in0.0 mm 0.00 in0.0 mm 0.00 in0.0 mm
07:00 AM 45.9°F7.7°C 39.1°F3.9°C 77% 7.9 mph SSE12.7 kmh SSE 15.2 mph24.5 kmh 29.48 in998.3 mb 0.00 in0.0 mm 0.00 in0.0 mm 0.00 in0.0 mm
06:45 AM 45.7°F7.6°C 39.2°F4.0°C 78% 5.6 mph WSW9.0 kmh WSW 12.1 mph19.5 kmh 29.48 in998.3 mb 0.00 in0.0 mm 0.00 in0.0 mm 0.00 in0.0 mm
06:30 AM 45.5°F7.5°C 39.0°F3.9°C 78% 5.9 mph SW9.5 kmh SW 10.7 mph17.2 kmh 29.49 in998.6 mb 0.00 in0.0 mm 0.00 in0.0 mm 0.00 in0.0 mm
06:15 AM 45.3°F7.4°C 39.2°F4.0°C 79% 4.8 mph ESE7.7 kmh ESE 9.8 mph15.8 kmh 29.50 in999.0 mb 0.00 in0.0 mm 0.00 in0.0 mm 0.00 in0.0 mm
06:00 AM 45.3°F7.4°C 38.9°F3.8°C 78% 5.1 mph WSW8.2 kmh WSW 9.2 mph14.8 kmh 29.50 in999.0 mb 0.00 in0.0 mm 0.00 in0.0 mm 0.00 in0.0 mm
05:45 AM 45.5°F7.5°C 39.0°F3.9°C 78% 5.4 mph S8.7 kmh S 9.2 mph14.8 kmh 29.52 in999.7 mb 0.00 in0.0 mm 0.00 in0.0 mm 0.00 in0.0 mm
05:30 AM 45.5°F7.5°C 39.0°F3.9°C 78% 6.1 mph N9.8 kmh N 10.7 mph17.2 kmh 29.52 in999.7 mb 0.00 in0.0 mm 0.00 in0.0 mm 0.00 in0.0 mm
05:15 AM 45.5°F7.5°C 38.4°F3.6°C 76% 3.8 mph SE6.1 kmh SE 7.6 mph12.2 kmh 29.53 in1000.0 mb 0.00 in0.0 mm 0.00 in0.0 mm 0.00 in0.0 mm
05:00 AM 45.3°F7.4°C 37.9°F3.3°C 75% 5.6 mph SSW9.0 kmh SSW 11.4 mph18.3 kmh 29.54 in1000.3 mb 0.00 in0.0 mm 0.00 in0.0 mm 0.00 in0.0 mm
04:45 AM 45.3°F7.4°C 37.9°F3.3°C 75% 5.3 mph NE8.5 kmh NE 10.7 mph17.2 kmh 29.53 in1000.0 mb 0.00 in0.0 mm 0.00 in0.0 mm 0.00 in0.0 mm
04:30 AM 45.3°F7.4°C 38.5°F3.6°C 77% 7.5 mph S12.1 kmh S 13.6 mph21.9 kmh 29.54 in1000.3 mb 0.00 in0.0 mm 0.00 in0.0 mm 0.00 in0.0 mm
04:15 AM 45.3°F7.4°C 38.5°F3.6°C 77% 5.2 mph SW8.4 kmh SW 11.4 mph18.3 kmh 29.55 in1000.7 mb 0.00 in0.0 mm 0.00 in0.0 mm 0.00 in0.0 mm
04:00 AM 45.3°F7.4°C 38.5°F3.6°C 77% 5.6 mph SE9.0 kmh SE 12.1 mph19.5 kmh 29.56 in1001.0 mb 0.00 in0.0 mm 0.00 in0.0 mm 0.00 in0.0 mm
03:45 AM 45.0°F7.2°C 38.2°F3.4°C 77% 4.4 mph S7.1 kmh S 8.3 mph13.4 kmh 29.57 in1001.4 mb 0.00 in0.0 mm 0.00 in0.0 mm 0.00 in0.0 mm
03:30 AM 44.8°F7.1°C 38.0°F3.3°C 77% 4.4 mph NE7.1 kmh NE 8.3 mph13.4 kmh 29.57 in1001.4 mb 0.00 in0.0 mm 0.00 in0.0 mm 0.00 in0.0 mm
03:15 AM 44.4°F6.9°C 37.7°F3.2°C 77% 3.2 mph W5.1 kmh W 6.0 mph9.7 kmh 29.57 in1001.4 mb 0.00 in0.0 mm 0.00 in0.0 mm 0.00 in0.0 mm
03:00 AM 43.3°F6.3°C 36.3°F2.4°C 76% 2.1 mph N3.4 kmh N 3.1 mph5.0 kmh 29.59 in1002.0 mb 0.00 in0.0 mm 0.00 in0.0 mm 0.00 in0.0 mm
02:45 AM 43.5°F6.4°C 36.5°F2.5°C 76% 2.1 mph ESE3.4 kmh ESE 3.1 mph5.0 kmh 29.59 in1002.0 mb 0.00 in0.0 mm 0.00 in0.0 mm 0.00 in0.0 mm
02:30 AM 44.4°F6.9°C 37.3°F2.9°C 76% 3.9 mph SW6.3 kmh SW 7.6 mph12.2 kmh 29.60 in1002.4 mb 0.00 in0.0 mm 0.00 in0.0 mm 0.00 in0.0 mm
02:15 AM 44.1°F6.7°C 37.0°F2.8°C 76% 5.4 mph SE8.7 kmh SE 11.4 mph18.3 kmh 29.60 in1002.4 mb 0.00 in0.0 mm 0.00 in0.0 mm 0.00 in0.0 mm
02:00 AM 43.5°F6.4°C 36.1°F2.3°C 75% 3.9 mph WNW6.3 kmh WNW 7.6 mph12.2 kmh 29.60 in1002.4 mb 0.00 in0.0 mm 0.00 in0.0 mm 0.00 in0.0 mm
01:45 AM 43.5°F6.4°C 36.1°F2.3°C 75% 3.6 mph NE5.8 kmh NE 5.4 mph8.7 kmh 29.61 in1002.7 mb 0.00 in0.0 mm 0.00 in0.0 mm 0.00 in0.0 mm
01:30 AM 44.2°F6.8°C 36.8°F2.7°C 75% 3.6 mph SE5.8 kmh SE 5.4 mph8.7 kmh 29.61 in1002.7 mb 0.00 in0.0 mm 0.00 in0.0 mm 0.00 in0.0 mm
01:15 AM 44.6°F7.0°C 37.2°F2.9°C 75% 4.8 mph N7.7 kmh N 11.4 mph18.3 kmh 29.62 in1003.0 mb 0.00 in0.0 mm 0.00 in0.0 mm 0.00 in0.0 mm
01:00 AM 44.4°F6.9°C 37.7°F3.2°C 77% 3.7 mph NNE6.0 kmh NNE 7.6 mph12.2 kmh 29.63 in1003.4 mb 0.00 in0.0 mm 0.00 in0.0 mm 0.00 in0.0 mm
12:45 AM 44.2°F6.8°C 38.1°F3.4°C 79% 3.8 mph NW6.1 kmh NW 9.8 mph15.8 kmh 29.64 in1003.7 mb 0.00 in0.0 mm 0.00 in0.0 mm 0.00 in0.0 mm
12:30 AM 43.3°F6.3°C 37.3°F2.9°C 79% 3.0 mph SE4.8 kmh SE 6.0 mph9.7 kmh 29.65 in1004.1 mb 0.00 in0.0 mm 0.00 in0.0 mm 0.00 in0.0 mm
12:15 AM 42.6°F5.9°C 36.9°F2.7°C 80% 2.1 mph NNE3.4 kmh NNE 4.5 mph7.2 kmh 29.65 in1004.1 mb 0.00 in0.0 mm 0.00 in0.0 mm 0.00 in0.0 mm
12:00 AM 42.6°F5.9°C 36.9°F2.7°C 80% 2.1 mph NNW3.4 kmh NNW 3.8 mph6.1 kmh 29.67 in1004.7 mb 0.00 in0.0 mm 0.00 in0.0 mm 0.00 in0.0 mm